Time;durP1;ratioP1;P1;durP2;ratioP2;P2;SDS_P1;SDS_P2;PMS_P1;PMS_P2;Temp;Humidity;BMP_temperature;BMP_pressure;BME280_temperature;BME280_humidity;BME280_pressure;Samples;Min_cycle;Max_cycle;Signal;HPM_P1;HPM_P2
2024/02/22 00:01:26;;;;;;;;;;;9.70;99.90;;;;;;5095627;28;19954;-86
2024/02/22 00:03:52;;;;;;;;;;;9.60;99.90;;;;;;5087528;28;19966;-86
2024/02/22 00:06:17;;;;;;;;;;;9.70;99.90;;;;;;5082184;28;20298;-86
2024/02/22 00:08:43;;;;;;;;;;;9.60;99.90;;;;;;5089746;28;19962;-86
2024/02/22 00:11:09;;;;;;;;;;;9.60;99.90;;;;;;5091035;28;20297;-86
2024/02/22 00:13:34;;;;;;;;;;;9.60;99.90;;;;;;5078248;28;20361;-86
2024/02/22 00:16:03;;;;;;;;;;;9.60;99.90;;;;;;5088220;28;20270;-86
2024/02/22 00:18:29;;;;;;;;;;;9.60;99.90;;;;;;5087809;28;19916;-86
2024/02/22 00:20:55;;;;;;;;;;;9.60;99.90;;;;;;5091605;28;19978;-86
2024/02/22 00:23:20;;;;;;;;;;;9.60;99.90;;;;;;5094013;28;19912;-87
2024/02/22 00:25:46;;;;;;;;;;;9.60;99.90;;;;;;5088167;28;19916;-86
2024/02/22 00:28:11;;;;;;;;;;;9.60;99.90;;;;;;5091875;28;19995;-87
2024/02/22 00:30:37;;;;;;;;;;;9.60;99.90;;;;;;5083380;28;20005;-87
2024/02/22 00:33:02;;;;;;;;;;;9.60;99.90;;;;;;5083320;28;20357;-86
2024/02/22 00:35:28;;;;;;;;;;;9.60;99.90;;;;;;5096420;28;19917;-87
2024/02/22 00:37:54;;;;;;;;;;;9.60;99.90;;;;;;5083495;28;19912;-86
2024/02/22 00:40:19;;;;;;;;;;;9.60;99.90;;;;;;5085049;28;19913;-86
2024/02/22 00:42:45;;;;;;;;;;;9.60;99.90;;;;;;5092823;28;19912;-86
2024/02/22 00:45:11;;;;;;;;;;;9.60;99.90;;;;;;5082158;28;19919;-86
2024/02/22 00:47:37;;;;;;;;;;;9.70;99.90;;;;;;5072553;28;19916;-86
2024/02/22 00:50:02;;;;;;;;;;;9.60;99.90;;;;;;5087004;28;19919;-86
2024/02/22 00:52:28;;;;;;;;;;;9.70;99.90;;;;;;5088729;28;20009;-87
2024/02/22 00:54:54;;;;;;;;;;;9.60;99.90;;;;;;5088264;28;19931;-88
2024/02/22 00:57:19;;;;;;;;;;;9.70;99.90;;;;;;5088897;28;19916;-86
2024/02/22 00:59:45;;;;;;;;;;;9.60;99.90;;;;;;5085263;28;20184;-86
2024/02/22 01:02:10;;;;;;;;;;;9.60;99.90;;;;;;5083083;28;19916;-87
2024/02/22 01:04:37;;;;;;;;;;;9.70;99.90;;;;;;5086473;28;19924;-86
2024/02/22 01:07:02;;;;;;;;;;;9.70;99.90;;;;;;5089455;28;19912;-86
2024/02/22 01:09:28;;;;;;;;;;;9.70;99.90;;;;;;5083848;28;19916;-87
2024/02/22 01:11:53;;;;;;;;;;;9.70;99.90;;;;;;5093004;28;19912;-86
2024/02/22 01:14:22;;;;;;;;;;;9.70;99.90;;;;;;5087149;28;19983;-86
2024/02/22 01:16:48;;;;;;;;;;;9.70;99.90;;;;;;5093252;28;19955;-87
2024/02/22 01:19:14;;;;;;;;;;;9.70;99.90;;;;;;5094013;28;19912;-86
2024/02/22 01:21:39;;;;;;;;;;;9.70;99.90;;;;;;5081850;28;19920;-86
2024/02/22 01:24:05;;;;;;;;;;;9.70;99.90;;;;;;5095842;28;19922;-86
2024/02/22 01:26:31;;;;;;;;;;;9.70;99.90;;;;;;5088948;28;19913;-86
2024/02/22 01:28:56;;;;;;;;;;;9.70;99.90;;;;;;5090334;28;19913;-86
2024/02/22 01:31:22;;;;;;;;;;;9.70;99.90;;;;;;5093645;28;19919;-87
2024/02/22 01:33:47;;;;;;;;;;;9.70;99.90;;;;;;5085467;28;19919;-85
2024/02/22 01:36:13;;;;;;;;;;;9.70;99.90;;;;;;5083676;28;19912;-87
2024/02/22 01:38:38;;;;;;;;;;;9.70;99.90;;;;;;5088158;28;19916;-86
2024/02/22 01:41:05;;;;;;;;;;;9.70;99.90;;;;;;5080536;28;19924;-86
2024/02/22 01:43:31;;;;;;;;;;;9.70;99.90;;;;;;5074969;28;19916;-86
2024/02/22 01:45:57;;;;;;;;;;;9.70;99.90;;;;;;5075092;28;19975;-86
2024/02/22 01:48:25;;;;;;;;;;;9.70;99.90;;;;;;5087414;28;19919;-87
2024/02/22 01:50:54;;;;;;;;;;;9.70;99.90;;;;;;5087008;28;19944;-86
2024/02/22 01:53:24;;;;;;;;;;;9.70;99.90;;;;;;5092628;28;19999;-86
2024/02/22 01:55:52;;;;;;;;;;;9.70;99.90;;;;;;5087661;28;19919;-87
2024/02/22 01:58:18;;;;;;;;;;;9.80;99.90;;;;;;5080339;28;19913;-86
2024/02/22 02:00:44;;;;;;;;;;;9.80;99.90;;;;;;5085736;28;20290;-86
2024/02/22 02:03:10;;;;;;;;;;;9.80;99.90;;;;;;5092215;28;20010;-86
2024/02/22 02:05:36;;;;;;;;;;;9.80;99.90;;;;;;5078776;28;20003;-85
2024/02/22 02:08:02;;;;;;;;;;;9.70;99.90;;;;;;5085340;28;19912;-86
2024/02/22 02:10:28;;;;;;;;;;;9.80;99.90;;;;;;5085223;28;20322;-86
2024/02/22 02:13:00;;;;;;;;;;;9.80;99.90;;;;;;5085864;28;19917;-86
2024/02/22 02:15:26;;;;;;;;;;;9.80;99.90;;;;;;5085650;28;19977;-86
2024/02/22 02:17:51;;;;;;;;;;;9.80;99.90;;;;;;5078203;28;19912;-86
2024/02/22 02:20:18;;;;;;;;;;;9.80;99.90;;;;;;5085398;28;19912;-86
2024/02/22 02:22:46;;;;;;;;;;;9.80;99.90;;;;;;5083471;28;20010;-86
2024/02/22 02:25:12;;;;;;;;;;;9.80;99.90;;;;;;5088168;28;19916;-86
2024/02/22 02:27:37;;;;;;;;;;;9.80;99.90;;;;;;5097934;28;19913;-86
2024/02/22 02:30:04;;;;;;;;;;;9.80;99.90;;;;;;5092286;28;19912;-87
2024/02/22 02:32:29;;;;;;;;;;;9.80;99.90;;;;;;5087871;28;19918;-86
2024/02/22 02:34:55;;;;;;;;;;;9.80;99.90;;;;;;5093729;28;20374;-86
2024/02/22 02:37:20;;;;;;;;;;;9.80;99.90;;;;;;5096904;28;19919;-86
2024/02/22 02:39:46;;;;;;;;;;;9.80;99.90;;;;;;5090784;28;20007;-86
2024/02/22 02:42:11;;;;;;;;;;;9.80;99.90;;;;;;5083714;28;19920;-86
2024/02/22 02:44:37;;;;;;;;;;;9.80;99.90;;;;;;5085804;28;19938;-86
2024/02/22 02:47:06;;;;;;;;;;;9.80;99.90;;;;;;5091154;28;20343;-86
2024/02/22 02:49:32;;;;;;;;;;;9.80;99.90;;;;;;5094021;28;19912;-88
2024/02/22 02:51:57;;;;;;;;;;;9.80;99.90;;;;;;5085822;28;19912;-88
2024/02/22 02:54:23;;;;;;;;;;;9.80;99.90;;;;;;5088665;28;19990;-86
2024/02/22 02:56:48;;;;;;;;;;;9.80;99.90;;;;;;5083311;28;19918;-86
2024/02/22 02:59:16;;;;;;;;;;;9.90;99.90;;;;;;5101275;28;19912;-86
2024/02/22 03:01:48;;;;;;;;;;;9.80;99.90;;;;;;5094337;28;20035;-86
2024/02/22 03:04:15;;;;;;;;;;;9.90;99.90;;;;;;5087603;28;19967;-86
2024/02/22 03:06:40;;;;;;;;;;;9.90;99.90;;;;;;5082445;28;19920;-87
2024/02/22 03:09:06;;;;;;;;;;;9.90;99.90;;;;;;5085466;28;19921;-86
2024/02/22 03:11:31;;;;;;;;;;;9.90;99.90;;;;;;5093673;28;19918;-85
2024/02/22 03:13:57;;;;;;;;;;;9.90;99.90;;;;;;5103310;28;20406;-86
2024/02/22 03:16:24;;;;;;;;;;;9.90;99.90;;;;;;5081393;28;20373;-86
2024/02/22 03:18:51;;;;;;;;;;;9.90;99.90;;;;;;5084150;28;19908;-87
2024/02/22 03:21:17;;;;;;;;;;;10.00;99.90;;;;;;5091733;28;20305;-86
2024/02/22 03:23:43;;;;;;;;;;;10.00;99.90;;;;;;5094191;28;19912;-86
2024/02/22 03:26:09;;;;;;;;;;;10.00;99.90;;;;;;5088235;28;19913;-86
2024/02/22 03:28:34;;;;;;;;;;;10.00;99.90;;;;;;5079918;28;20377;-87
2024/02/22 03:31:00;;;;;;;;;;;10.00;99.90;;;;;;5089713;28;19908;-86
2024/02/22 03:33:28;;;;;;;;;;;10.00;99.90;;;;;;5107785;28;20313;-86
2024/02/22 03:35:55;;;;;;;;;;;10.00;99.90;;;;;;5084577;28;19918;-86
2024/02/22 03:38:21;;;;;;;;;;;10.00;99.90;;;;;;5088250;28;19916;-86
2024/02/22 03:40:46;;;;;;;;;;;10.00;99.90;;;;;;5094590;28;19916;-86
2024/02/22 03:43:13;;;;;;;;;;;10.00;99.90;;;;;;5089877;28;19982;-86
2024/02/22 03:45:39;;;;;;;;;;;10.00;99.90;;;;;;5088330;28;19995;-86
2024/02/22 03:48:05;;;;;;;;;;;10.00;99.90;;;;;;5086192;28;19952;-86
2024/02/22 03:50:30;;;;;;;;;;;10.00;99.90;;;;;;5080341;28;19963;-86
2024/02/22 03:52:56;;;;;;;;;;;10.00;99.90;;;;;;5087928;28;19951;-86
2024/02/22 03:55:21;;;;;;;;;;;10.00;99.90;;;;;;5096190;28;19912;-86
2024/02/22 03:57:47;;;;;;;;;;;10.00;99.90;;;;;;5091242;28;19912;-86
2024/02/22 04:00:13;;;;;;;;;;;10.00;99.90;;;;;;5086394;28;20362;-86
2024/02/22 04:02:39;;;;;;;;;;;10.00;99.90;;;;;;5080019;28;19975;-86
2024/02/22 04:05:04;;;;;;;;;;;10.10;99.90;;;;;;5086985;28;19915;-86
2024/02/22 04:07:30;;;;;;;;;;;10.10;99.90;;;;;;5095090;28;19911;-86
2024/02/22 04:09:55;;;;;;;;;;;10.10;99.90;;;;;;5088064;28;19917;-86
2024/02/22 04:12:21;;;;;;;;;;;10.10;99.90;;;;;;5085140;28;20373;-86
2024/02/22 04:14:47;;;;;;;;;;;10.10;99.90;;;;;;5092246;28;19912;-86
2024/02/22 04:17:12;;;;;;;;;;;10.10;99.90;;;;;;5098771;28;19916;-86
2024/02/22 04:19:38;;;;;;;;;;;10.10;99.90;;;;;;5092710;28;20010;-86
2024/02/22 04:22:03;;;;;;;;;;;10.10;99.90;;;;;;5087892;28;19975;-87
2024/02/22 04:24:29;;;;;;;;;;;10.10;99.90;;;;;;5077474;28;19912;-86
2024/02/22 04:26:54;;;;;;;;;;;10.10;99.90;;;;;;5086117;28;19912;-86
2024/02/22 04:29:20;;;;;;;;;;;10.10;99.90;;;;;;5086236;28;21417;-87
2024/02/22 04:31:46;;;;;;;;;;;10.10;99.90;;;;;;5094321;28;19916;-86
2024/02/22 04:34:11;;;;;;;;;;;10.00;99.90;;;;;;5080511;28;20328;-89
2024/02/22 04:36:39;;;;;;;;;;;10.10;99.90;;;;;;5093069;28;19911;-86
2024/02/22 04:39:06;;;;;;;;;;;10.10;99.90;;;;;;5088706;28;19917;-86
2024/02/22 04:41:32;;;;;;;;;;;10.00;99.90;;;;;;5091314;28;19916;-86
2024/02/22 04:43:57;;;;;;;;;;;10.10;99.90;;;;;;5084420;28;20377;-86
2024/02/22 04:46:23;;;;;;;;;;;10.10;99.90;;;;;;5080002;28;19960;-86
2024/02/22 04:48:49;;;;;;;;;;;10.00;99.90;;;;;;5084580;28;19921;-86
2024/02/22 04:51:14;;;;;;;;;;;10.10;99.90;;;;;;5089385;28;19937;-86
2024/02/22 04:53:40;;;;;;;;;;;10.10;99.90;;;;;;5086554;28;19913;-87
2024/02/22 04:56:06;;;;;;;;;;;10.10;99.90;;;;;;5074949;28;20458;-86
2024/02/22 04:58:32;;;;;;;;;;;10.10;99.90;;;;;;5090808;28;19912;-86
2024/02/22 05:00:57;;;;;;;;;;;10.10;99.90;;;;;;5078227;28;20271;-86
2024/02/22 05:03:23;;;;;;;;;;;10.10;99.90;;;;;;5093016;28;19943;-86
2024/02/22 05:05:49;;;;;;;;;;;10.20;99.90;;;;;;5092197;28;19912;-87
2024/02/22 05:08:14;;;;;;;;;;;10.20;99.90;;;;;;5087927;28;19912;-86
2024/02/22 05:10:40;;;;;;;;;;;10.20;99.90;;;;;;5081008;28;20373;-85
2024/02/22 05:13:05;;;;;;;;;;;10.20;99.90;;;;;;5092638;28;19913;-86
2024/02/22 05:15:31;;;;;;;;;;;10.20;99.90;;;;;;5089021;28;19920;-84
2024/02/22 05:17:56;;;;;;;;;;;10.20;99.90;;;;;;5089482;28;19920;-86
2024/02/22 05:20:22;;;;;;;;;;;10.20;99.90;;;;;;5078689;28;19912;-86
2024/02/22 05:22:47;;;;;;;;;;;10.20;99.90;;;;;;5104535;28;19916;-88
2024/02/22 05:25:13;;;;;;;;;;;10.20;99.90;;;;;;5086961;28;19919;-85
2024/02/22 05:27:38;;;;;;;;;;;10.20;99.90;;;;;;5087211;28;19912;-86
2024/02/22 05:30:04;;;;;;;;;;;10.20;99.90;;;;;;5080166;28;19912;-85
2024/02/22 05:32:31;;;;;;;;;;;10.20;99.90;;;;;;5081508;28;19912;-88
2024/02/22 05:34:56;;;;;;;;;;;10.20;99.90;;;;;;5080843;28;19940;-88
2024/02/22 05:37:22;;;;;;;;;;;10.20;99.90;;;;;;5089951;28;19974;-86
2024/02/22 05:39:47;;;;;;;;;;;10.10;99.90;;;;;;5085902;28;19922;-86
2024/02/22 05:42:13;;;;;;;;;;;10.20;99.90;;;;;;5077472;28;20344;-88
2024/02/22 05:44:39;;;;;;;;;;;10.20;99.90;;;;;;5085412;28;19912;-85
2024/02/22 05:47:04;;;;;;;;;;;10.20;99.90;;;;;;5085543;28;19973;-86
2024/02/22 05:49:30;;;;;;;;;;;10.20;99.90;;;;;;5082654;28;19912;-86
2024/02/22 05:51:55;;;;;;;;;;;10.20;99.90;;;;;;5083159;28;19919;-86
2024/02/22 05:54:22;;;;;;;;;;;10.20;99.90;;;;;;5088386;28;19912;-85
2024/02/22 05:56:48;;;;;;;;;;;10.20;99.90;;;;;;5082979;28;19912;-86
2024/02/22 05:59:13;;;;;;;;;;;10.10;99.90;;;;;;5090145;28;19944;-85
2024/02/22 06:01:39;;;;;;;;;;;10.20;99.90;;;;;;5088549;28;19916;-85
2024/02/22 06:04:04;;;;;;;;;;;10.20;99.90;;;;;;5082302;28;19961;-87
2024/02/22 06:06:29;;;;;;;;;;;10.20;99.90;;;;;;5086838;28;19919;-86
2024/02/22 06:08:55;;;;;;;;;;;10.20;99.90;;;;;;5089476;28;19924;-86
2024/02/22 06:11:20;;;;;;;;;;;10.20;99.90;;;;;;5085449;28;19919;-86
2024/02/22 06:13:46;;;;;;;;;;;10.20;99.90;;;;;;5089474;28;19912;-87
2024/02/22 06:16:11;;;;;;;;;;;10.20;99.90;;;;;;5081816;28;19924;-86
2024/02/22 06:18:37;;;;;;;;;;;10.20;99.90;;;;;;5077366;28;20347;-86
2024/02/22 06:21:02;;;;;;;;;;;10.20;99.90;;;;;;5079854;28;19969;-88
2024/02/22 06:23:28;;;;;;;;;;;10.20;99.90;;;;;;5084907;28;19966;-85
2024/02/22 06:25:55;;;;;;;;;;;10.20;99.90;;;;;;5088226;28;19919;-86
2024/02/22 06:28:21;;;;;;;;;;;10.20;99.90;;;;;;5090341;28;19912;-85
2024/02/22 06:30:46;;;;;;;;;;;10.20;99.90;;;;;;5075685;28;20026;-85
2024/02/22 06:33:12;;;;;;;;;;;10.20;99.90;;;;;;5083406;28;19966;-85
2024/02/22 06:35:37;;;;;;;;;;;10.10;99.90;;;;;;5089690;28;19912;-88
2024/02/22 06:38:03;;;;;;;;;;;10.20;99.90;;;;;;5093468;28;19927;-86
2024/02/22 06:40:29;;;;;;;;;;;10.20;99.90;;;;;;5093569;28;20301;-85
2024/02/22 06:42:54;;;;;;;;;;;10.20;99.90;;;;;;5083640;28;19912;-85
2024/02/22 06:45:23;;;;;;;;;;;10.20;99.90;;;;;;5084145;28;19908;-85
2024/02/22 06:47:50;;;;;;;;;;;10.20;99.90;;;;;;5088751;28;19915;-84
2024/02/22 06:50:16;;;;;;;;;;;10.30;99.90;;;;;;5088557;28;19919;-86
2024/02/22 06:52:42;;;;;;;;;;;10.30;99.90;;;;;;5072505;28;19913;-85
2024/02/22 06:55:10;;;;;;;;;;;10.30;99.90;;;;;;5072111;28;19916;-85
2024/02/22 06:57:36;;;;;;;;;;;10.30;99.90;;;;;;5073644;28;19916;-85
2024/02/22 07:00:03;;;;;;;;;;;10.40;99.90;;;;;;5086997;28;19912;-85
2024/02/22 07:02:28;;;;;;;;;;;10.40;99.90;;;;;;5076731;28;20015;-84
2024/02/22 07:04:53;;;;;;;;;;;10.50;99.90;;;;;;5091375;28;19912;-85
2024/02/22 07:07:19;;;;;;;;;;;10.50;99.90;;;;;;5086943;28;19947;-86
2024/02/22 07:09:44;;;;;;;;;;;10.60;99.90;;;;;;5077545;28;20358;-84
2024/02/22 07:12:10;;;;;;;;;;;10.60;99.90;;;;;;5079983;28;19912;-86
2024/02/22 07:14:35;;;;;;;;;;;10.60;99.90;;;;;;5085912;28;19912;-86
2024/02/22 07:17:01;;;;;;;;;;;10.60;99.90;;;;;;5087986;28;20393;-85
2024/02/22 07:19:27;;;;;;;;;;;10.70;99.90;;;;;;5080506;28;20054;-86
2024/02/22 07:21:52;;;;;;;;;;;10.60;99.90;;;;;;5083552;28;20381;-85
2024/02/22 07:24:18;;;;;;;;;;;10.70;99.90;;;;;;5094184;28;19912;-85
2024/02/22 07:26:43;;;;;;;;;;;10.70;99.90;;;;;;5099854;28;19918;-87
2024/02/22 07:29:09;;;;;;;;;;;10.70;99.90;;;;;;5094450;28;20293;-86
2024/02/22 07:31:42;;;;;;;;;;;10.70;99.90;;;;;;5083159;28;19912;-87
2024/02/22 07:34:08;;;;;;;;;;;10.70;99.90;;;;;;5092432;28;19927;-87
2024/02/22 07:36:34;;;;;;;;;;;10.80;99.90;;;;;;5099659;28;19930;-88
2024/02/22 07:39:01;;;;;;;;;;;10.90;99.90;;;;;;5092629;28;20344;-85
2024/02/22 07:41:27;;;;;;;;;;;11.00;99.90;;;;;;5085556;28;19925;-85
2024/02/22 07:43:53;;;;;;;;;;;11.10;99.90;;;;;;5086097;28;20572;-86
2024/02/22 07:46:18;;;;;;;;;;;11.20;99.90;;;;;;5093250;28;19936;-85
2024/02/22 07:48:47;;;;;;;;;;;11.30;99.90;;;;;;5089514;28;20273;-85
2024/02/22 07:51:12;;;;;;;;;;;11.50;98.90;;;;;;5082904;28;19943;-84
2024/02/22 07:53:38;;;;;;;;;;;11.60;94.20;;;;;;5090083;28;19965;-85
2024/02/22 07:56:04;;;;;;;;;;;11.60;90.10;;;;;;5094881;28;19916;-85
2024/02/22 07:58:46;;;;;;;;;;;11.60;79.10;;;;;;5086539;28;19916;-87
2024/02/22 08:01:14;;;;;;;;;;;11.60;71.20;;;;;;5084623;28;20271;-86
2024/02/22 08:03:40;;;;;;;;;;;11.50;60.40;;;;;;5081840;28;19912;-85
2024/02/22 08:06:06;;;;;;;;;;;11.50;55.30;;;;;;5080114;28;19920;-85
2024/02/22 08:08:31;;;;;;;;;;;11.60;50.30;;;;;;5086055;28;19948;-85
2024/02/22 08:10:57;;;;;;;;;;;11.70;48.60;;;;;;5075439;28;19913;-85
2024/02/22 08:13:22;;;;;;;;;;;11.80;42.50;;;;;;5081386;28;19991;-86
2024/02/22 08:15:49;;;;;;;;;;;11.90;39.10;;;;;;5084740;28;19919;-86
2024/02/22 08:18:14;;;;;;;;;;;12.00;30.90;;;;;;5087745;28;19913;-86
2024/02/22 08:20:40;;;;;;;;;;;12.20;24.60;;;;;;5090250;28;20408;-87
2024/02/22 08:23:09;;;;;;;;;;;12.40;13.70;;;;;;5086716;28;19908;-86
2024/02/22 08:25:37;;;;;;;;;;;12.70;1.00;;;;;;5080024;28;19932;-86
2024/02/22 08:28:06;;;;;;;;;;;13.10;1.00;;;;;;5077729;28;19912;-85
2024/02/22 08:30:31;;;;;;;;;;;13.40;1.00;;;;;;5089041;28;19912;-86
2024/02/22 08:32:57;;;;;;;;;;;13.50;1.00;;;;;;5084333;28;19920;-85
2024/02/22 08:35:23;;;;;;;;;;;13.50;1.00;;;;;;5081855;28;19916;-85
2024/02/22 08:37:49;;;;;;;;;;;13.30;1.00;;;;;;5088846;28;19923;-85
2024/02/22 08:40:14;;;;;;;;;;;13.20;1.00;;;;;;5081705;28;20460;-87
2024/02/22 08:42:40;;;;;;;;;;;13.00;1.00;;;;;;5079012;28;19937;-87
2024/02/22 08:45:05;;;;;;;;;;;12.90;1.00;;;;;;5081056;28;19951;-85
2024/02/22 08:47:31;;;;;;;;;;;12.90;1.00;;;;;;5089334;28;19912;-87
2024/02/22 08:49:58;;;;;;;;;;;13.00;1.00;;;;;;5092993;28;20007;-86
2024/02/22 08:52:24;;;;;;;;;;;13.10;1.00;;;;;;5085141;28;19955;-86
2024/02/22 08:54:52;;;;;;;;;;;13.10;1.00;;;;;;5079682;28;19913;-85
2024/02/22 08:57:17;;;;;;;;;;;13.10;1.00;;;;;;5090135;28;19916;-84
2024/02/22 08:59:43;;;;;;;;;;;13.10;1.00;;;;;;5087656;28;19913;-85
2024/02/22 09:02:09;;;;;;;;;;;13.10;1.00;;;;;;5074589;28;19917;-86
2024/02/22 09:04:35;;;;;;;;;;;13.00;1.00;;;;;;5078146;28;19924;-85
2024/02/22 09:07:00;;;;;;;;;;;13.00;1.00;;;;;;5079409;28;20109;-85
2024/02/22 09:09:27;;;;;;;;;;;12.90;1.00;;;;;;5088104;28;19923;-85
2024/02/22 09:11:53;;;;;;;;;;;12.90;1.00;;;;;;5080480;28;20003;-85
2024/02/22 09:14:19;;;;;;;;;;;12.90;1.00;;;;;;5073035;28;19947;-85
2024/02/22 09:16:44;;;;;;;;;;;12.90;1.00;;;;;;5083818;28;20267;-87
2024/02/22 09:19:10;;;;;;;;;;;12.90;1.00;;;;;;5077700;28;19912;-85
2024/02/22 09:21:36;;;;;;;;;;;13.00;1.00;;;;;;5074875;28;20313;-85
2024/02/22 09:24:02;;;;;;;;;;;13.20;1.00;;;;;;5073991;28;19912;-87
2024/02/22 09:26:28;;;;;;;;;;;13.50;1.00;;;;;;5074863;28;19912;-85
2024/02/22 09:28:53;;;;;;;;;;;13.90;1.00;;;;;;5078262;28;20289;-85
2024/02/22 09:31:19;;;;;;;;;;;14.00;1.00;;;;;;5080208;28;19927;-85
2024/02/22 09:33:44;;;;;;;;;;;14.10;1.00;;;;;;5072198;28;20392;-85
2024/02/22 09:36:11;;;;;;;;;;;14.10;1.00;;;;;;5072584;28;19919;-88
2024/02/22 09:38:36;;;;;;;;;;;14.10;1.00;;;;;;5080293;28;19926;-85
2024/02/22 09:41:02;;;;;;;;;;;14.20;1.00;;;;;;5096663;28;19955;-83
2024/02/22 09:43:29;;;;;;;;;;;14.20;99.90;;;;;;5087550;28;19913;-85
2024/02/22 09:45:55;;;;;;;;;;;14.10;99.90;;;;;;5085593;28;19919;-85
2024/02/22 09:48:24;;;;;;;;;;;14.10;99.90;;;;;;5075100;28;19999;-85
2024/02/22 09:50:49;;;;;;;;;;;14.10;99.90;;;;;;5079997;28;19918;-83
2024/02/22 09:53:15;;;;;;;;;;;14.20;1.00;;;;;;5073053;28;19955;-85
2024/02/22 09:55:41;;;;;;;;;;;14.40;1.00;;;;;;5071019;28;19958;-86
2024/02/22 09:58:06;;;;;;;;;;;14.40;99.90;;;;;;5086558;28;19987;-85
2024/02/22 10:00:32;;;;;;;;;;;14.40;99.90;;;;;;5087818;28;19912;-85
2024/02/22 10:02:57;;;;;;;;;;;14.50;99.90;;;;;;5075342;28;19912;-86
2024/02/22 10:05:23;;;;;;;;;;;14.50;99.90;;;;;;5084192;28;19908;-86
2024/02/22 10:07:48;;;;;;;;;;;14.70;99.90;;;;;;5074425;28;19916;-85
2024/02/22 10:10:22;;;;;;;;;;;14.90;99.90;;;;;;5090325;28;19917;-86
2024/02/22 10:12:48;;;;;;;;;;;15.30;99.90;;;;;;5084782;28;19927;-86
2024/02/22 10:15:17;;;;;;;;;;;15.40;99.90;;;;;;5084044;28;19912;-86
2024/02/22 10:17:43;;;;;;;;;;;15.40;99.90;;;;;;5081021;28;19913;-85
2024/02/22 10:20:09;;;;;;;;;;;15.40;1.00;;;;;;5079125;28;19909;-86
2024/02/22 10:22:37;;;;;;;;;;;15.30;1.00;;;;;;5089651;28;19916;-85
2024/02/22 10:25:10;;;;;;;;;;;15.30;1.00;;;;;;5077347;28;19908;-86
2024/02/22 10:27:36;;;;;;;;;;;15.40;25.10;;;;;;5075499;28;19916;-85
2024/02/22 10:30:06;;;;;;;;;;;15.50;41.90;;;;;;5086127;28;19908;-85
2024/02/22 10:32:32;;;;;;;;;;;15.50;1.00;;;;;;5071320;28;19909;-85
2024/02/22 10:34:57;;;;;;;;;;;15.40;1.00;;;;;;5072376;28;20370;-85
2024/02/22 10:37:23;;;;;;;;;;;15.30;1.00;;;;;;5070907;28;19908;-85
2024/02/22 10:39:49;;;;;;;;;;;15.30;1.00;;;;;;5080521;28;19920;-89
2024/02/22 10:42:14;;;;;;;;;;;15.30;1.00;;;;;;5080107;28;20168;-85
2024/02/22 10:44:46;;;;;;;;;;;15.30;55.20;;;;;;5076723;28;20289;-85
2024/02/22 10:47:11;;;;;;;;;;;15.30;99.90;;;;;;5085901;28;19930;-85
2024/02/22 10:49:38;;;;;;;;;;;15.40;1.00;;;;;;5088407;28;19908;-83
2024/02/22 10:52:04;;;;;;;;;;;15.60;1.00;;;;;;5083853;28;20488;-85
2024/02/22 10:54:30;;;;;;;;;;;15.80;99.90;;;;;;5076723;28;19913;-85
2024/02/22 10:56:57;;;;;;;;;;;15.80;1.00;;;;;;5086759;28;19958;-85
2024/02/22 10:59:28;;;;;;;;;;;15.80;1.00;;;;;;5090148;28;20011;-85
2024/02/22 11:01:55;;;;;;;;;;;15.60;99.90;;;;;;5085814;28;19920;-87
2024/02/22 11:04:20;;;;;;;;;;;15.40;1.00;;;;;;5086389;28;19915;-86
2024/02/22 11:06:47;;;;;;;;;;;15.20;99.90;;;;;;5087656;28;19908;-85
2024/02/22 11:09:17;;;;;;;;;;;15.10;99.90;;;;;;5087383;28;19958;-85
2024/02/22 11:11:43;;;;;;;;;;;14.90;1.00;;;;;;5089098;28;19912;-83
2024/02/22 11:14:09;;;;;;;;;;;14.70;66.90;;;;;;5082833;28;19912;-85
2024/02/22 11:16:35;;;;;;;;;;;14.60;99.90;;;;;;5079443;28;19923;-86
2024/02/22 11:19:16;;;;;;;;;;;14.60;99.90;;;;;;5089332;28;19919;-86
2024/02/22 11:21:41;;;;;;;;;;;14.60;99.90;;;;;;5081154;28;19920;-87
2024/02/22 11:24:13;;;;;;;;;;;14.60;99.90;;;;;;5090872;28;20066;-85
2024/02/22 11:26:39;;;;;;;;;;;14.70;99.90;;;;;;5092662;28;19937;-86
2024/02/22 11:29:05;;;;;;;;;;;14.80;99.90;;;;;;5100063;28;19916;-85
2024/02/22 11:31:31;;;;;;;;;;;14.90;99.90;;;;;;5090741;28;19908;-86
2024/02/22 11:33:57;;;;;;;;;;;15.20;99.90;;;;;;5084757;28;19908;-86
2024/02/22 11:36:24;;;;;;;;;;;15.50;1.00;;;;;;5082517;28;19909;-86
2024/02/22 11:38:56;;;;;;;;;;;15.90;99.90;;;;;;5077749;28;20366;-85
2024/02/22 11:41:22;;;;;;;;;;;16.20;84.90;;;;;;5089006;28;20014;-86
2024/02/22 11:43:47;;;;;;;;;;;16.30;99.90;;;;;;5087358;28;19944;-85
2024/02/22 11:46:12;;;;;;;;;;;16.20;1.00;;;;;;5086328;28;19919;-85
2024/02/22 11:48:38;;;;;;;;;;;16.10;99.90;;;;;;5081010;28;20397;-86
2024/02/22 11:51:04;;;;;;;;;;;16.00;75.50;;;;;;5090468;28;19912;-86
2024/02/22 11:53:30;;;;;;;;;;;15.90;99.90;;;;;;5092790;28;19909;-86
2024/02/22 11:55:55;;;;;;;;;;;15.80;99.90;;;;;;5095791;28;19919;-87
2024/02/22 11:58:21;;;;;;;;;;;15.70;99.90;;;;;;5098087;28;19952;-86
2024/02/22 12:00:46;;;;;;;;;;;15.60;1.00;;;;;;5088364;28;19908;-85
2024/02/22 12:03:12;;;;;;;;;;;15.50;99.90;;;;;;5088657;28;20017;-85
2024/02/22 12:05:38;;;;;;;;;;;15.40;99.90;;;;;;5084483;28;19915;-85
2024/02/22 12:08:03;;;;;;;;;;;15.30;1.00;;;;;;5083017;28;19912;-87
2024/02/22 12:10:29;;;;;;;;;;;15.20;1.00;;;;;;5082569;28;19955;-86
2024/02/22 12:12:55;;;;;;;;;;;15.20;99.90;;;;;;5088744;28;20285;-86
2024/02/22 12:15:20;;;;;;;;;;;15.20;99.90;;;;;;5081709;28;19966;-86
2024/02/22 12:17:48;;;;;;;;;;;15.20;99.90;;;;;;5092927;28;19963;-89
2024/02/22 12:20:15;;;;;;;;;;;15.20;99.90;;;;;;5083100;28;19920;-88
2024/02/22 12:22:47;;;;;;;;;;;15.20;1.00;;;;;;5082278;28;19912;-86
2024/02/22 12:25:12;;;;;;;;;;;15.20;1.00;;;;;;5088532;28;19908;-85
2024/02/22 12:27:38;;;;;;;;;;;15.30;1.00;;;;;;5095871;28;19915;-86
2024/02/22 12:30:03;;;;;;;;;;;15.40;99.90;;;;;;5096662;28;19963;-86
2024/02/22 12:32:29;;;;;;;;;;;15.40;3.00;;;;;;5081289;28;19909;-86
2024/02/22 12:34:56;;;;;;;;;;;15.40;9.40;;;;;;5088677;28;19919;-85
2024/02/22 12:37:21;;;;;;;;;;;15.50;99.90;;;;;;5097981;28;19938;-86
2024/02/22 12:39:48;;;;;;;;;;;15.60;99.90;;;;;;5095399;28;19912;-85
2024/02/22 12:42:13;;;;;;;;;;;15.60;48.10;;;;;;5095713;28;19942;-84
2024/02/22 12:44:39;;;;;;;;;;;15.70;99.90;;;;;;5098336;28;19912;-86
2024/02/22 12:47:05;;;;;;;;;;;15.60;99.90;;;;;;5095814;28;19928;-86
2024/02/22 12:49:32;;;;;;;;;;;15.60;99.90;;;;;;5096133;28;19915;-85
2024/02/22 12:51:58;;;;;;;;;;;15.60;1.00;;;;;;5094639;28;19912;-86
2024/02/22 12:54:27;;;;;;;;;;;15.80;1.00;;;;;;5081010;28;19992;-85
2024/02/22 12:56:54;;;;;;;;;;;15.90;1.00;;;;;;5097855;28;19958;-85
2024/02/22 12:59:19;;;;;;;;;;;15.90;99.90;;;;;;5094755;28;20368;-85
2024/02/22 13:01:47;;;;;;;;;;;15.80;1.00;;;;;;5083146;28;19916;-86
2024/02/22 13:04:14;;;;;;;;;;;15.80;1.00;;;;;;5076553;28;20382;-85
2024/02/22 13:06:42;;;;;;;;;;;15.70;1.00;;;;;;5092894;28;20373;-85
2024/02/22 13:09:07;;;;;;;;;;;15.70;1.00;;;;;;5083079;28;19924;-85
2024/02/22 13:11:33;;;;;;;;;;;15.80;99.90;;;;;;5083481;28;20004;-86
2024/02/22 13:13:58;;;;;;;;;;;16.10;99.90;;;;;;5078857;28;19912;-85
2024/02/22 13:16:27;;;;;;;;;;;16.30;99.90;;;;;;5110460;23;20586;-83
2024/02/22 13:18:56;;;;;;;;;;;16.40;1.00;;;;;;5079982;28;19908;-83
2024/02/22 13:21:21;;;;;;;;;;;16.50;99.90;;;;;;5096263;28;19920;-82
2024/02/22 13:23:47;;;;;;;;;;;16.50;99.90;;;;;;5078533;28;19973;-82
2024/02/22 13:26:12;;;;;;;;;;;16.30;99.90;;;;;;5088733;28;19918;-82
2024/02/22 13:28:38;;;;;;;;;;;16.00;99.90;;;;;;5105139;27;19911;-81
2024/02/22 13:31:03;;;;;;;;;;;15.90;1.00;;;;;;5118357;27;19912;-83
2024/02/22 13:33:29;;;;;;;;;;;15.80;1.00;;;;;;5099135;28;19927;-81
2024/02/22 13:35:55;;;;;;;;;;;15.70;1.00;;;;;;5116757;28;19908;-81
2024/02/22 13:38:20;;;;;;;;;;;15.60;99.90;;;;;;5116877;28;19909;-81
2024/02/22 13:40:46;;;;;;;;;;;15.60;99.90;;;;;;5113213;28;19923;-81
2024/02/22 13:43:15;;;;;;;;;;;15.50;1.00;;;;;;5094521;28;21454;-80
2024/02/22 13:45:43;;;;;;;;;;;15.50;99.90;;;;;;5115242;28;19912;-80
2024/02/22 13:48:12;;;;;;;;;;;15.40;1.00;;;;;;5107814;28;19915;-84
2024/02/22 13:50:40;;;;;;;;;;;15.40;1.00;;;;;;5116305;28;19956;-81
2024/02/22 13:53:06;;;;;;;;;;;15.30;99.90;;;;;;5117414;28;19908;-82
2024/02/22 13:55:32;;;;;;;;;;;15.20;1.00;;;;;;5117741;28;20278;-82
2024/02/22 13:57:57;;;;;;;;;;;15.20;99.90;;;;;;5097080;28;19908;-83
2024/02/22 14:00:26;;;;;;;;;;;15.10;99.90;;;;;;5117217;28;19919;-84
2024/02/22 14:02:52;;;;;;;;;;;15.10;1.00;;;;;;5115515;28;19912;-83
2024/02/22 14:05:17;;;;;;;;;;;15.00;1.00;;;;;;5113538;28;19918;-84
2024/02/22 14:07:47;;;;;;;;;;;15.00;76.90;;;;;;5115645;28;19911;-81
2024/02/22 14:10:13;;;;;;;;;;;15.00;1.00;;;;;;5115102;28;20142;-81
2024/02/22 14:12:39;;;;;;;;;;;15.00;1.00;;;;;;5116528;28;19912;-81
2024/02/22 14:15:04;;;;;;;;;;;15.00;1.00;;;;;;5085026;28;19911;-83
2024/02/22 14:17:30;;;;;;;;;;;15.00;1.00;;;;;;5079306;28;19923;-82